Forge Village, Massachusetts
Current Conditions -  °F | °C
As of 9:56 AM on Thursday 23 Oct 2014 (Local Time) from KBED Reporting Station
Heavy Rain Heavy Rain  
Wind Chill: 42°   Ceiling: 500
Heat Index: 49°   Visibility: 3mi
Dew Point: 48°   Wind: 22mph
Humidity: 97%   Direction: 340°NNW
Pressure: 29.62"   Gusts: 32mph
Location:  42.5863°N, 71.4398°W
Report Text: KBED 231356Z 34019G28KT 3SM +RA BR BKN005 BKN010 OVC055 09/09 A2962 RMK AO2 PK WND 33028/1355 PRESFR SLP042 P0027 T00940089
Loading
Personal Weather Stations






























Interactive Weather Map
Tropical Storm Tracking
New forecast layout! Learn more

10-Day Weather Forecast

Advertisements
Track Severe Weather on mobile